首页
METAR-TAF:

METAR-TAF

机场 :

奧本, 苏格兰

纬度: 56-27-49N, 经度: 5-24-00W, 海拔: 7米

当前天气观测

该预报发布于9小时和49分钟前的15:50 UTC
风速7节,风向
温度 8°C
湿度 76%
气压 1018 hPa
能见度10公里或以上
少量云层高于3700英尺

METAR: EGEO 171550Z 36007KT 9999 FEW037 08/04 Q1018

时间: 01:39 (01:39 UTC)

预报

该预报发布于11小时和40分钟前的13:59 UTC
预报有效从17日的 15点(UTC)到 17日的 17点(UTC)
风速8节,风向北转西北
能见度10公里或以上
散云层高于3000英尺
几率 30% :
短暂存在
从 17日的 15点(UTC)到 17日的 17点(UTC)
能見度: 6000
阵雨

TAF: EGEO 171359Z 1715/1717 34008KT 9999 SCT030 PROB30 TEMPO 1715/1717 6000 SHRA

超过4000个机场的气象观测和天气预报(METAR&TAF报告)。

可查询的气象台以黄色和红色小点在地图上表示。

将鼠标移到小点上方,可查看气象台名称。

然后点击查看天气观测和预报。

如需切换地图:点击带黑十字的绿色按钮放大地图;点击带横线的绿色按钮缩小地图;或者点击绿色箭头查看邻近地区的地图。


METAR-TAF: